Time;durP1;ratioP1;P1;durP2;ratioP2;P2;SDS_P1;SDS_P2;PMS_P1;PMS_P2;Temp;Humidity;BMP_temperature;BMP_pressure;BME280_temperature;BME280_humidity;BME280_pressure;Samples;Min_cycle;Max_cycle;Signal;HPM_P1;HPM_P2
2024/01/21 00:00:53;;;;;;;27.03;13.00;;;;;;;;;;5035367;28;20088;-75
2024/01/21 00:03:19;;;;;;;26.17;12.50;;;;;;;;;;5034895;28;20045;-75
2024/01/21 00:05:44;;;;;;;34.43;15.47;;;;;;;;;;5033849;28;20060;-75
2024/01/21 00:08:11;;;;;;;33.50;12.73;;;;;;;;;;5035906;28;20564;-75
2024/01/21 00:10:36;;;;;;;24.73;11.63;;;;;;;;;;5036700;28;20037;-75
2024/01/21 00:13:02;;;;;;;26.67;11.27;;;;;;;;;;5035527;28;20030;-75
2024/01/21 00:15:28;;;;;;;33.97;14.33;;;;;;;;;;5037287;28;20018;-75
2024/01/21 00:17:53;;;;;;;31.57;14.43;;;;;;;;;;5037213;28;20029;-74
2024/01/21 00:20:19;;;;;;;29.70;13.30;;;;;;;;;;5036152;28;20383;-75
2024/01/21 00:22:44;;;;;;;28.30;13.00;;;;;;;;;;5035708;28;20040;-76
2024/01/21 00:25:10;;;;;;;36.03;13.10;;;;;;;;;;5035192;28;20044;-73
2024/01/21 00:27:36;;;;;;;27.50;13.30;;;;;;;;;;5035096;28;20116;-73
2024/01/21 00:30:05;;;;;;;23.70;12.00;;;;;;;;;;5036200;28;20117;-72
2024/01/21 00:32:31;;;;;;;31.37;12.87;;;;;;;;;;5034884;28;20029;-72
2024/01/21 00:34:56;;;;;;;26.07;12.70;;;;;;;;;;5033935;28;20033;-72
2024/01/21 00:37:22;;;;;;;33.67;12.80;;;;;;;;;;5033218;28;20029;-75
2024/01/21 00:39:48;;;;;;;33.57;15.23;;;;;;;;;;5032330;28;20087;-74
2024/01/21 00:42:14;;;;;;;24.10;11.43;;;;;;;;;;5034242;28;20041;-74
2024/01/21 00:44:40;;;;;;;35.03;14.07;;;;;;;;;;5033928;28;20104;-74
2024/01/21 00:47:06;;;;;;;36.17;13.73;;;;;;;;;;5032380;28;20064;-74
2024/01/21 00:49:32;;;;;;;26.27;12.03;;;;;;;;;;5033028;28;20140;-75
2024/01/21 00:51:58;;;;;;;31.30;13.73;;;;;;;;;;5032507;28;20116;-74
2024/01/21 00:54:24;;;;;;;33.97;14.10;;;;;;;;;;5015291;28;20067;-74
2024/01/21 00:56:49;;;;;;;27.23;13.80;;;;;;;;;;5031207;28;20377;-74
2024/01/21 00:59:15;;;;;;;26.27;12.80;;;;;;;;;;5031987;28;20120;-72
2024/01/21 01:01:41;;;;;;;28.87;12.57;;;;;;;;;;5032822;28;20031;-72
2024/01/21 01:04:06;;;;;;;31.13;12.23;;;;;;;;;;5033721;28;20037;-72
2024/01/21 01:06:33;;;;;;;25.07;12.87;;;;;;;;;;5035144;28;20492;-74
2024/01/21 01:08:59;;;;;;;30.63;12.63;;;;;;;;;;5033412;28;20113;-73
2024/01/21 01:11:25;;;;;;;25.37;12.40;;;;;;;;;;5034040;28;20073;-73
2024/01/21 01:13:51;;;;;;;31.43;12.90;;;;;;;;;;5032143;28;20056;-74
2024/01/21 01:16:17;;;;;;;28.97;13.23;;;;;;;;;;5031954;28;20021;-74
2024/01/21 01:18:43;;;;;;;31.33;13.13;;;;;;;;;;5016396;28;20048;-73
2024/01/21 01:21:11;;;;;;;34.20;14.17;;;;;;;;;;5038873;28;20029;-71
2024/01/21 01:23:36;;;;;;;30.73;13.67;;;;;;;;;;5049364;28;20029;-74
2024/01/21 01:26:02;;;;;;;29.33;14.53;;;;;;;;;;5044181;28;20272;-72
2024/01/21 01:28:29;;;;;;;33.73;14.97;;;;;;;;;;5034511;28;20778;-71
2024/01/21 01:30:54;;;;;;;27.40;14.80;;;;;;;;;;5034316;28;20340;-75
2024/01/21 01:33:20;;;;;;;31.90;13.87;;;;;;;;;;5034372;28;20050;-73
2024/01/21 01:35:46;;;;;;;35.47;14.00;;;;;;;;;;5033395;28;20089;-73
2024/01/21 01:38:13;;;;;;;31.47;13.33;;;;;;;;;;5032229;28;20121;-73
2024/01/21 01:40:38;;;;;;;27.77;14.57;;;;;;;;;;5032556;28;20021;-73
2024/01/21 01:43:05;;;;;;;31.87;14.60;;;;;;;;;;5032662;28;20401;-76
2024/01/21 01:45:30;;;;;;;26.43;12.67;;;;;;;;;;5032231;28;20037;-73
2024/01/21 01:47:57;;;;;;;24.80;12.53;;;;;;;;;;5033287;28;20052;-74
2024/01/21 01:50:26;;;;;;;31.17;14.13;;;;;;;;;;5033599;28;20029;-74
2024/01/21 01:52:52;;;;;;;30.13;13.63;;;;;;;;;;5033977;28;20025;-72
2024/01/21 01:55:18;;;;;;;37.93;13.87;;;;;;;;;;5032850;28;20021;-75
2024/01/21 01:57:45;;;;;;;24.97;12.87;;;;;;;;;;5034992;28;20394;-73
2024/01/21 02:00:12;;;;;;;39.17;15.03;;;;;;;;;;5032298;28;20206;-74
2024/01/21 02:02:40;;;;;;;35.27;13.73;;;;;;;;;;5032745;28;20040;-74
2024/01/21 02:05:06;;;;;;;27.93;13.17;;;;;;;;;;5036407;28;20075;-73
2024/01/21 02:07:32;;;;;;;31.23;13.63;;;;;;;;;;5034999;28;20044;-72
2024/01/21 02:10:02;;;;;;;29.50;14.47;;;;;;;;;;5036687;28;20029;-74
2024/01/21 02:12:28;;;;;;;31.37;12.70;;;;;;;;;;5034888;28;20040;-73
2024/01/21 02:14:54;;;;;;;35.63;15.03;;;;;;;;;;5035311;28;20033;-73
2024/01/21 02:17:23;;;;;;;37.33;15.40;;;;;;;;;;5037710;28;20028;-72
2024/01/21 02:19:49;;;;;;;33.90;14.97;;;;;;;;;;5035408;28;20037;-72
2024/01/21 02:22:14;;;;;;;30.03;13.77;;;;;;;;;;5035923;28;20025;-75
2024/01/21 02:24:41;;;;;;;31.43;13.00;;;;;;;;;;5035846;28;20025;-73
2024/01/21 02:27:10;;;;;;;34.23;14.33;;;;;;;;;;5036590;28;20056;-74
2024/01/21 02:29:35;;;;;;;37.47;15.00;;;;;;;;;;5035040;28;20030;-73
2024/01/21 02:32:01;;;;;;;29.63;12.40;;;;;;;;;;5035921;28;20072;-74
2024/01/21 02:34:27;;;;;;;34.57;13.67;;;;;;;;;;5034937;28;20025;-76
2024/01/21 02:36:52;;;;;;;34.23;13.90;;;;;;;;;;5035661;28;20500;-76
2024/01/21 02:39:18;;;;;;;33.97;12.97;;;;;;;;;;5036518;28;20063;-74
2024/01/21 02:41:43;;;;;;;29.40;13.27;;;;;;;;;;5036675;28;20037;-74
2024/01/21 02:44:09;;;;;;;23.30;11.83;;;;;;;;;;5036245;28;20063;-74
2024/01/21 02:46:36;;;;;;;31.37;13.73;;;;;;;;;;5042311;28;20036;-74
2024/01/21 02:49:01;;;;;;;24.70;10.27;;;;;;;;;;5042334;28;20061;-73
2024/01/21 02:51:27;;;;;;;24.63;12.77;;;;;;;;;;5037461;28;20071;-73
2024/01/21 02:53:53;;;;;;;31.67;12.70;;;;;;;;;;5033922;28;20091;-73
2024/01/21 02:56:23;;;;;;;29.40;11.80;;;;;;;;;;5034381;28;20021;-75
2024/01/21 02:58:53;;;;;;;27.70;12.83;;;;;;;;;;5033842;28;20045;-74
2024/01/21 03:01:19;;;;;;;29.93;11.53;;;;;;;;;;5018132;28;20033;-74
2024/01/21 03:03:45;;;;;;;25.43;12.40;;;;;;;;;;5034288;28;20059;-75
2024/01/21 03:06:11;;;;;;;27.83;14.60;;;;;;;;;;5034134;28;20393;-72
2024/01/21 03:08:37;;;;;;;28.77;12.43;;;;;;;;;;5034187;28;20029;-75
2024/01/21 03:11:03;;;;;;;31.43;13.87;;;;;;;;;;5034706;28;20061;-74
2024/01/21 03:13:28;;;;;;;35.47;12.80;;;;;;;;;;5017421;28;20466;-74
2024/01/21 03:15:54;;;;;;;27.80;12.57;;;;;;;;;;5033356;28;20168;-74
2024/01/21 03:18:20;;;;;;;24.30;12.67;;;;;;;;;;5034526;28;20036;-74
2024/01/21 03:20:46;;;;;;;24.03;12.40;;;;;;;;;;5034227;28;20033;-73
2024/01/21 03:23:12;;;;;;;38.00;14.07;;;;;;;;;;5033927;28;20551;-75
2024/01/21 03:25:38;;;;;;;25.83;11.37;;;;;;;;;;5034070;28;20030;-75
2024/01/21 03:28:03;;;;;;;25.40;12.00;;;;;;;;;;5035313;28;20084;-74
2024/01/21 03:30:29;;;;;;;27.27;11.70;;;;;;;;;;5035951;28;20362;-75
2024/01/21 03:32:55;;;;;;;29.50;13.60;;;;;;;;;;5039060;28;20091;-74
2024/01/21 03:35:20;;;;;;;23.00;11.17;;;;;;;;;;5038586;28;20068;-74
2024/01/21 03:37:46;;;;;;;28.03;12.70;;;;;;;;;;5039674;28;20470;-72
2024/01/21 03:40:12;;;;;;;27.93;11.43;;;;;;;;;;5036123;28;20033;-73
2024/01/21 03:42:38;;;;;;;20.70;10.87;;;;;;;;;;5033254;28;20037;-73
2024/01/21 03:45:04;;;;;;;25.80;11.00;;;;;;;;;;5033444;28;20056;-75
2024/01/21 03:47:30;;;;;;;24.73;12.10;;;;;;;;;;5036401;28;20025;-75
2024/01/21 03:49:55;;;;;;;20.63;12.30;;;;;;;;;;5036352;28;20025;-74
2024/01/21 03:52:22;;;;;;;27.97;11.80;;;;;;;;;;5035167;28;20037;-76
2024/01/21 03:54:48;;;;;;;28.53;12.47;;;;;;;;;;5035718;28;20044;-76
2024/01/21 03:57:14;;;;;;;23.80;10.90;;;;;;;;;;5034880;28;20021;-74
2024/01/21 03:59:40;;;;;;;24.97;11.83;;;;;;;;;;5033328;28;20561;-74
2024/01/21 04:02:05;;;;;;;23.67;11.57;;;;;;;;;;5034335;28;20034;-73
2024/01/21 04:04:31;;;;;;;31.37;12.57;;;;;;;;;;5035249;28;20036;-74
2024/01/21 04:06:57;;;;;;;21.83;10.40;;;;;;;;;;5033731;28;20033;-72
2024/01/21 04:09:23;;;;;;;24.83;10.83;;;;;;;;;;5032844;28;20025;-74
2024/01/21 04:11:49;;;;;;;19.87;11.30;;;;;;;;;;5032984;28;20211;-72
2024/01/21 04:14:16;;;;;;;24.30;11.67;;;;;;;;;;5033868;28;20507;-75
2024/01/21 04:16:41;;;;;;;28.17;12.63;;;;;;;;;;5034518;28;20509;-74
2024/01/21 04:19:07;;;;;;;19.63;10.30;;;;;;;;;;5032330;28;20029;-70
2024/01/21 04:21:36;;;;;;;26.70;12.90;;;;;;;;;;5032514;28;20052;-74
2024/01/21 04:24:02;;;;;;;24.97;12.37;;;;;;;;;;5033151;28;20477;-74
2024/01/21 04:26:29;;;;;;;27.07;10.83;;;;;;;;;;5033598;28;20022;-73
2024/01/21 04:28:54;;;;;;;29.23;10.57;;;;;;;;;;5031914;28;20754;-72
2024/01/21 04:31:20;;;;;;;25.67;12.13;;;;;;;;;;5032380;28;20136;-73
2024/01/21 04:33:45;;;;;;;33.53;12.87;;;;;;;;;;5033474;28;20029;-73
2024/01/21 04:36:19;;;;;;;28.03;11.77;;;;;;;;;;5032110;28;20025;-73
2024/01/21 04:38:46;;;;;;;27.30;11.83;;;;;;;;;;5033132;28;20075;-74
2024/01/21 04:41:13;;;;;;;32.30;12.47;;;;;;;;;;5032429;28;20021;-72
2024/01/21 04:43:38;;;;;;;23.63;10.37;;;;;;;;;;5032403;28;20030;-74
2024/01/21 04:46:04;;;;;;;39.13;13.53;;;;;;;;;;5032339;28;20588;-75
2024/01/21 04:48:29;;;;;;;28.63;11.30;;;;;;;;;;5033243;28;20029;-75
2024/01/21 04:50:55;;;;;;;27.53;10.40;;;;;;;;;;5032832;28;20469;-72
2024/01/21 04:53:20;;;;;;;28.47;12.33;;;;;;;;;;5032495;28;20040;-73
2024/01/21 04:55:46;;;;;;;38.20;12.53;;;;;;;;;;5033077;28;20037;-74
2024/01/21 04:58:12;;;;;;;37.60;12.50;;;;;;;;;;5033490;28;20057;-75
2024/01/21 05:00:37;;;;;;;24.43;9.80;;;;;;;;;;5035015;28;20389;-75
2024/01/21 05:03:03;;;;;;;24.23;10.37;;;;;;;;;;5033544;28;20520;-73
2024/01/21 05:05:28;;;;;;;24.27;10.77;;;;;;;;;;5031548;28;20055;-74
2024/01/21 05:07:55;;;;;;;32.90;11.37;;;;;;;;;;5034746;28;20037;-73
2024/01/21 05:10:21;;;;;;;24.70;10.20;;;;;;;;;;5042390;28;20029;-73
2024/01/21 05:12:46;;;;;;;21.23;9.83;;;;;;;;;;5041064;28;20056;-76
2024/01/21 05:15:13;;;;;;;34.60;10.60;;;;;;;;;;5038787;28;20092;-74
2024/01/21 05:17:38;;;;;;;22.23;9.53;;;;;;;;;;5037037;28;20524;-74
2024/01/21 05:20:06;;;;;;;23.47;10.73;;;;;;;;;;5034595;28;20029;-73
2024/01/21 05:22:31;;;;;;;28.97;11.03;;;;;;;;;;5033487;28;20064;-73
2024/01/21 05:24:57;;;;;;;29.57;11.90;;;;;;;;;;5033798;28;20025;-73
2024/01/21 05:27:22;;;;;;;18.97;10.07;;;;;;;;;;5034952;28;20026;-75
2024/01/21 05:29:48;;;;;;;24.00;11.77;;;;;;;;;;5042993;28;20108;-73
2024/01/21 05:32:14;;;;;;;23.67;11.67;;;;;;;;;;5045290;28;20087;-73
2024/01/21 05:34:40;;;;;;;31.20;11.90;;;;;;;;;;5035153;28;20029;-76
2024/01/21 05:37:06;;;;;;;31.77;11.97;;;;;;;;;;5015641;28;20501;-76
2024/01/21 05:39:32;;;;;;;24.90;10.80;;;;;;;;;;5032262;28;20419;-74
2024/01/21 05:42:05;;;;;;;26.23;11.87;;;;;;;;;;5033853;28;20405;-74
2024/01/21 05:44:31;;;;;;;23.43;11.70;;;;;;;;;;5032164;28;20079;-75
2024/01/21 05:46:56;;;;;;;24.00;11.97;;;;;;;;;;5032020;28;20108;-75
2024/01/21 05:49:23;;;;;;;27.40;10.93;;;;;;;;;;5033946;28;20021;-74
2024/01/21 05:51:49;;;;;;;25.60;12.40;;;;;;;;;;5036749;28;20068;-75
2024/01/21 05:54:15;;;;;;;23.27;11.20;;;;;;;;;;5037225;28;20076;-74
2024/01/21 05:56:43;;;;;;;37.17;13.00;;;;;;;;;;5037724;28;20358;-74
2024/01/21 05:59:10;;;;;;;33.67;11.63;;;;;;;;;;5036589;28;20091;-74
2024/01/21 06:01:36;;;;;;;32.83;11.33;;;;;;;;;;5038604;28;20061;-75
2024/01/21 06:04:02;;;;;;;24.83;11.50;;;;;;;;;;5036573;28;20506;-70
2024/01/21 06:06:29;;;;;;;32.13;13.30;;;;;;;;;;5037911;28;20108;-76
2024/01/21 06:08:55;;;;;;;29.50;12.07;;;;;;;;;;5036874;28;20033;-74
2024/01/21 06:11:21;;;;;;;31.87;12.67;;;;;;;;;;5036498;28;20064;-75
2024/01/21 06:13:47;;;;;;;25.90;13.57;;;;;;;;;;5036508;28;20033;-75
2024/01/21 06:16:18;;;;;;;26.73;11.90;;;;;;;;;;5037304;28;20075;-72
2024/01/21 06:18:44;;;;;;;23.50;11.40;;;;;;;;;;5038279;28;20032;-73
2024/01/21 06:21:10;;;;;;;29.17;12.80;;;;;;;;;;5037433;28;20477;-74
2024/01/21 06:23:35;;;;;;;29.77;12.90;;;;;;;;;;5037903;28;20369;-73
2024/01/21 06:26:02;;;;;;;35.27;12.57;;;;;;;;;;5019879;28;20029;-73
2024/01/21 06:28:27;;;;;;;37.03;13.77;;;;;;;;;;5037608;28;20025;-74
2024/01/21 06:30:53;;;;;;;24.37;12.00;;;;;;;;;;5036568;28;20547;-75
2024/01/21 06:33:19;;;;;;;23.80;11.30;;;;;;;;;;5035909;28;20029;-75
2024/01/21 06:35:46;;;;;;;31.80;12.17;;;;;;;;;;5037675;28;20021;-75
2024/01/21 06:38:12;;;;;;;29.63;12.70;;;;;;;;;;5035868;28;20034;-74
2024/01/21 06:40:39;;;;;;;28.40;11.93;;;;;;;;;;5037403;28;20524;-72
2024/01/21 06:43:04;;;;;;;32.90;11.37;;;;;;;;;;5037463;28;20091;-71
2024/01/21 06:45:30;;;;;;;28.43;13.10;;;;;;;;;;5043086;28;20026;-73
2024/01/21 06:47:55;;;;;;;31.00;11.93;;;;;;;;;;5041962;28;20021;-74
2024/01/21 06:50:21;;;;;;;28.87;13.00;;;;;;;;;;5034931;28;20194;-74
2024/01/21 06:52:49;;;;;;;23.97;12.80;;;;;;;;;;5035038;28;20064;-72
2024/01/21 06:55:14;;;;;;;28.80;11.47;;;;;;;;;;5036834;28;20028;-74
2024/01/21 06:57:41;;;;;;;26.50;12.50;;;;;;;;;;5037902;28;20120;-73
2024/01/21 07:00:09;;;;;;;27.07;12.23;;;;;;;;;;5036316;28;20056;-72
2024/01/21 07:02:39;;;;;;;37.93;14.03;;;;;;;;;;5034386;28;20108;-75
2024/01/21 07:05:05;;;;;;;28.80;13.00;;;;;;;;;;5037683;28;20041;-73
2024/01/21 07:07:31;;;;;;;28.07;13.10;;;;;;;;;;5040295;28;20021;-71
2024/01/21 07:09:56;;;;;;;30.30;12.20;;;;;;;;;;5040254;28;20091;-74
2024/01/21 07:12:22;;;;;;;35.63;13.03;;;;;;;;;;5038466;28;20021;-73
2024/01/21 07:14:50;;;;;;;26.73;13.90;;;;;;;;;;5037773;28;20029;-72
2024/01/21 07:17:16;;;;;;;28.50;12.83;;;;;;;;;;5037661;28;20107;-71
2024/01/21 07:19:42;;;;;;;24.63;11.27;;;;;;;;;;5038393;28;20425;-75
2024/01/21 07:22:08;;;;;;;33.73;14.00;;;;;;;;;;5042540;28;20018;-71
2024/01/21 07:24:34;;;;;;;24.50;12.30;;;;;;;;;;5024969;28;20036;-71
2024/01/21 07:27:01;;;;;;;27.87;12.20;;;;;;;;;;5040884;28;20021;-73
2024/01/21 07:29:27;;;;;;;25.67;11.70;;;;;;;;;;5040955;28;20025;-74
2024/01/21 07:31:53;;;;;;;29.10;11.07;;;;;;;;;;5039177;28;20385;-73
2024/01/21 07:34:19;;;;;;;30.83;13.70;;;;;;;;;;5039370;28;20021;-74
2024/01/21 07:36:45;;;;;;;30.43;12.60;;;;;;;;;;5038734;28;20022;-73
2024/01/21 07:39:13;;;;;;;26.10;12.37;;;;;;;;;;5037885;28;20021;-75
2024/01/21 07:41:39;;;;;;;30.33;12.80;;;;;;;;;;5038062;28;20088;-71
2024/01/21 07:44:05;;;;;;;24.50;12.90;;;;;;;;;;5038801;28;20525;-73
2024/01/21 07:46:30;;;;;;;34.70;14.33;;;;;;;;;;5040040;28;20481;-72
2024/01/21 07:48:56;;;;;;;35.40;13.77;;;;;;;;;;5041506;28;20040;-72
2024/01/21 07:51:22;;;;;;;33.97;14.50;;;;;;;;;;5040761;28;20022;-73
2024/01/21 07:53:48;;;;;;;28.27;15.23;;;;;;;;;;5039359;28;20489;-71
2024/01/21 07:56:14;;;;;;;31.37;13.80;;;;;;;;;;5038463;28;20051;-72
2024/01/21 07:58:40;;;;;;;29.33;13.13;;;;;;;;;;5037588;28;20056;-73
2024/01/21 08:01:11;;;;;;;31.80;13.97;;;;;;;;;;5037707;28;20108;-73
2024/01/21 08:03:37;;;;;;;29.77;12.77;;;;;;;;;;5036864;28;20044;-73
2024/01/21 08:06:07;;;;;;;36.40;15.93;;;;;;;;;;5036857;28;20025;-76
2024/01/21 08:08:33;;;;;;;30.43;13.63;;;;;;;;;;5020592;28;20371;-75
2024/01/21 08:10:59;;;;;;;28.33;14.80;;;;;;;;;;5038702;28;20025;-78
2024/01/21 08:13:27;;;;;;;27.13;13.90;;;;;;;;;;5038047;28;20033;-74
2024/01/21 08:15:53;;;;;;;29.60;14.47;;;;;;;;;;5039254;28;20026;-74
2024/01/21 08:18:19;;;;;;;36.33;14.63;;;;;;;;;;5038608;28;20187;-74
2024/01/21 08:20:46;;;;;;;37.20;14.07;;;;;;;;;;5021731;28;20033;-72
2024/01/21 08:23:12;;;;;;;27.83;13.53;;;;;;;;;;5021828;28;20025;-74
2024/01/21 08:25:38;;;;;;;30.73;14.53;;;;;;;;;;5019948;28;20057;-72
2024/01/21 08:28:04;;;;;;;27.40;15.27;;;;;;;;;;5036198;28;20026;-77
2024/01/21 08:30:31;;;;;;;27.07;14.13;;;;;;;;;;5036475;28;20071;-73
2024/01/21 08:32:56;;;;;;;35.87;13.80;;;;;;;;;;5035479;28;20510;-75
2024/01/21 08:35:22;;;;;;;31.80;12.83;;;;;;;;;;5035956;28;20033;-74
2024/01/21 08:37:48;;;;;;;34.27;13.93;;;;;;;;;;5037121;28;20381;-74
2024/01/21 08:40:14;;;;;;;29.97;14.63;;;;;;;;;;5018738;28;20029;-74
2024/01/21 08:42:40;;;;;;;30.77;14.33;;;;;;;;;;5035632;28;20032;-73
2024/01/21 08:45:07;;;;;;;35.80;14.53;;;;;;;;;;5037173;28;20044;-75
2024/01/21 08:47:38;;;;;;;31.50;15.37;;;;;;;;;;5018344;28;20107;-74
2024/01/21 08:50:06;;;;;;;28.93;14.17;;;;;;;;;;5035490;28;20053;-75
2024/01/21 08:52:31;;;;;;;41.83;14.70;;;;;;;;;;5035916;28;20025;-75
2024/01/21 08:54:59;;;;;;;35.10;16.87;;;;;;;;;;5036679;28;20060;-72
2024/01/21 08:57:24;;;;;;;37.37;12.63;;;;;;;;;;5037002;28;20041;-73
2024/01/21 08:59:51;;;;;;;33.93;13.43;;;;;;;;;;5036739;28;20472;-74
2024/01/21 09:02:18;;;;;;;36.53;15.63;;;;;;;;;;5038013;28;20021;-73
2024/01/21 09:04:45;;;;;;;35.90;14.10;;;;;;;;;;5037038;28;20021;-74
2024/01/21 09:07:11;;;;;;;39.03;15.20;;;;;;;;;;5018486;28;20029;-73
2024/01/21 09:09:36;;;;;;;37.17;15.07;;;;;;;;;;5036712;28;20017;-73
2024/01/21 09:12:03;;;;;;;31.50;15.23;;;;;;;;;;5035928;28;20032;-73
2024/01/21 09:14:29;;;;;;;35.57;13.47;;;;;;;;;;5036184;28;20564;-75
2024/01/21 09:16:55;;;;;;;31.13;13.87;;;;;;;;;;5036332;28;20113;-74
2024/01/21 09:19:21;;;;;;;38.73;14.07;;;;;;;;;;5035577;28;20435;-72
2024/01/21 09:21:47;;;;;;;28.53;13.40;;;;;;;;;;5034843;28;20047;-74
2024/01/21 09:24:14;;;;;;;35.17;16.00;;;;;;;;;;5036052;28;20026;-73
2024/01/21 09:26:40;;;;;;;34.53;14.17;;;;;;;;;;5034044;28;20061;-72
2024/01/21 09:29:06;;;;;;;43.20;15.63;;;;;;;;;;5036208;28;20032;-75
2024/01/21 09:31:31;;;;;;;32.20;13.77;;;;;;;;;;5034775;28;20037;-74
2024/01/21 09:33:57;;;;;;;35.13;15.13;;;;;;;;;;5038541;28;20089;-73
2024/01/21 09:36:23;;;;;;;35.23;15.27;;;;;;;;;;5035970;28;20018;-74
2024/01/21 09:38:53;;;;;;;38.10;16.00;;;;;;;;;;5035354;28;20484;-75
2024/01/21 09:41:40;;;;;;;45.83;16.20;;;;;;;;;;5033637;28;20089;-73
2024/01/21 09:44:06;;;;;;;35.50;15.67;;;;;;;;;;5034684;28;20114;-73
2024/01/21 09:46:32;;;;;;;29.10;13.77;;;;;;;;;;5033291;28;20033;-74
2024/01/21 09:49:03;;;;;;;38.27;15.63;;;;;;;;;;5035900;28;20021;-74
2024/01/21 09:51:32;;;;;;;43.23;14.80;;;;;;;;;;5033054;28;20068;-72
2024/01/21 09:54:00;;;;;;;34.20;15.47;;;;;;;;;;5033157;28;20030;-75
2024/01/21 09:56:26;;;;;;;33.27;14.87;;;;;;;;;;5034423;28;20021;-74
2024/01/21 09:58:53;;;;;;;40.53;14.27;;;;;;;;;;5039983;28;20072;-74
2024/01/21 10:01:20;;;;;;;37.03;14.43;;;;;;;;;;5038938;28;20041;-74
2024/01/21 10:03:46;;;;;;;33.43;14.77;;;;;;;;;;5035460;28;20052;-74
2024/01/21 10:06:12;;;;;;;29.37;13.67;;;;;;;;;;5034131;28;20037;-74
2024/01/21 10:08:40;;;;;;;29.23;13.10;;;;;;;;;;5032473;28;20041;-72
2024/01/21 10:11:07;;;;;;;34.87;14.40;;;;;;;;;;5034212;28;20060;-74
2024/01/21 10:13:39;;;;;;;48.53;17.67;;;;;;;;;;5034449;28;20547;-72
2024/01/21 10:16:06;;;;;;;44.63;15.23;;;;;;;;;;5034822;28;20026;-72
2024/01/21 10:18:33;;;;;;;31.67;13.60;;;;;;;;;;5034334;28;20033;-74
2024/01/21 10:21:02;;;;;;;33.70;13.13;;;;;;;;;;5033852;28;20022;-76
2024/01/21 10:23:28;;;;;;;32.23;13.30;;;;;;;;;;5033200;28;20079;-76
2024/01/21 10:25:54;;;;;;;36.00;12.77;;;;;;;;;;5033315;28;20485;-75
2024/01/21 10:28:20;;;;;;;24.77;11.23;;;;;;;;;;5033816;28;20025;-73
2024/01/21 10:30:46;;;;;;;32.87;12.77;;;;;;;;;;5033780;28;20160;-74
2024/01/21 10:33:13;;;;;;;26.53;10.77;;;;;;;;;;5034868;28;20155;-74
2024/01/21 10:35:39;;;;;;;26.90;10.97;;;;;;;;;;5035289;28;20025;-75
2024/01/21 10:38:10;;;;;;;27.73;10.93;;;;;;;;;;5038599;28;20132;-73
2024/01/21 10:40:43;;;;;;;25.40;10.30;;;;;;;;;;5040037;28;20071;-74
2024/01/21 10:43:15;;;;;;;29.83;12.03;;;;;;;;;;5042827;28;20025;-73
2024/01/21 10:45:50;;;;;;;33.17;12.47;;;;;;;;;;5046370;28;20021;-76
2024/01/21 10:48:16;;;;;;;24.37;13.30;;;;;;;;;;5043322;28;20116;-75
2024/01/21 10:50:44;;;;;;;33.07;14.50;;;;;;;;;;5039570;28;20048;-72
2024/01/21 10:53:12;;;;;;;30.57;13.87;;;;;;;;;;5036496;28;20136;-75
2024/01/21 10:55:41;;;;;;;27.93;13.63;;;;;;;;;;5036503;28;20036;-74
2024/01/21 10:58:08;;;;;;;28.90;13.20;;;;;;;;;;5036439;28;20057;-73
2024/01/21 11:00:36;;;;;;;26.07;12.63;;;;;;;;;;5036746;28;20037;-73
2024/01/21 11:03:32;;;;;;;27.23;12.33;;;;;;;;;;5037488;28;20096;-75
2024/01/21 11:06:00;;;;;;;33.83;12.33;;;;;;;;;;5036102;28;20056;-74
2024/01/21 11:08:27;;;;;;;46.63;13.53;;;;;;;;;;5036604;28;20033;-73
2024/01/21 11:11:16;;;;;;;27.40;12.07;;;;;;;;;;5037943;28;20042;-72
2024/01/21 11:13:46;;;;;;;22.77;11.40;;;;;;;;;;5038068;28;20026;-74
2024/01/21 11:16:28;;;;;;;41.83;15.63;;;;;;;;;;5039285;28;20060;-77
2024/01/21 11:18:57;;;;;;;26.02;11.63;;;;;;;;;;5039231;28;20034;-73
2024/01/21 11:21:25;;;;;;;46.17;14.27;;;;;;;;;;5038481;28;20477;-72
2024/01/21 11:24:06;;;;;;;35.70;13.90;;;;;;;;;;5038820;28;20071;-74
2024/01/21 11:26:37;;;;;;;37.50;12.97;;;;;;;;;;5038348;28;20125;-71
2024/01/21 11:29:21;;;;;;;30.70;12.30;;;;;;;;;;5036751;28;20320;-73
2024/01/21 11:31:51;;;;;;;26.33;12.17;;;;;;;;;;5038004;28;20473;-74
2024/01/21 11:34:17;;;;;;;48.87;13.80;;;;;;;;;;5038733;28;20025;-73
2024/01/21 11:36:46;;;;;;;42.93;14.23;;;;;;;;;;5041706;28;20013;-71
2024/01/21 11:39:12;;;;;;;35.30;13.53;;;;;;;;;;5040234;28;20091;-74
2024/01/21 11:41:43;;;;;;;35.50;12.27;;;;;;;;;;5039035;28;20429;-74
2024/01/21 11:44:13;;;;;;;44.97;12.97;;;;;;;;;;5039341;28;20113;-74
2024/01/21 11:46:41;;;;;;;36.17;11.37;;;;;;;;;;5037070;28;20025;-75
2024/01/21 11:49:09;;;;;;;31.57;11.73;;;;;;;;;;5039235;28;20052;-74
2024/01/21 11:51:36;;;;;;;49.10;15.27;;;;;;;;;;5039539;28;20517;-74
2024/01/21 11:54:02;;;;;;;38.23;13.83;;;;;;;;;;5038426;28;20040;-74
2024/01/21 11:56:28;;;;;;;53.00;14.00;;;;;;;;;;5035988;28;20021;-75
2024/01/21 11:58:54;;;;;;;37.47;13.93;;;;;;;;;;5035460;28;20049;-72
2024/01/21 12:01:23;;;;;;;29.63;13.03;;;;;;;;;;5037294;28;20057;-75
2024/01/21 12:03:49;;;;;;;33.00;12.50;;;;;;;;;;5037169;28;20041;-74
2024/01/21 12:06:16;;;;;;;32.83;11.87;;;;;;;;;;5034947;28;20040;-76
2024/01/21 12:08:44;;;;;;;38.17;13.40;;;;;;;;;;5035540;28;20128;-73
2024/01/21 12:11:12;;;;;;;33.03;12.47;;;;;;;;;;5035992;28;20029;-73
2024/01/21 12:13:45;;;;;;;48.47;13.97;;;;;;;;;;5034687;28;20033;-73
2024/01/21 12:16:11;;;;;;;63.93;21.67;;;;;;;;;;5036936;28;20028;-73
2024/01/21 12:18:44;;;;;;;56.00;16.20;;;;;;;;;;5034690;28;20025;-74
2024/01/21 12:21:14;;;;;;;37.40;13.57;;;;;;;;;;5035876;28;20025;-76
2024/01/21 12:23:44;;;;;;;36.30;13.43;;;;;;;;;;5035315;28;20029;-72
2024/01/21 12:26:17;;;;;;;53.90;17.47;;;;;;;;;;5034923;28;20025;-74
2024/01/21 12:29:14;;;;;;;41.50;14.40;;;;;;;;;;5035021;28;20118;-75
2024/01/21 12:31:41;;;;;;;56.73;15.40;;;;;;;;;;5019349;28;20033;-74
2024/01/21 12:34:10;;;;;;;53.53;15.30;;;;;;;;;;5021046;28;20111;-75
2024/01/21 12:36:41;;;;;;;44.93;14.33;;;;;;;;;;5036281;28;20032;-74
2024/01/21 12:39:09;;;;;;;48.33;16.13;;;;;;;;;;5036263;28;20035;-74
2024/01/21 12:41:36;;;;;;;40.73;15.57;;;;;;;;;;5019189;28;20064;-74
2024/01/21 12:44:02;;;;;;;49.07;17.83;;;;;;;;;;5037881;28;20048;-72
2024/01/21 12:46:31;;;;;;;58.93;17.67;;;;;;;;;;5036768;28;20029;-72
2024/01/21 12:48:56;;;;;;;41.90;16.10;;;;;;;;;;5036415;28;20025;-75
2024/01/21 12:51:23;;;;;;;46.13;16.13;;;;;;;;;;5036742;28;20023;-73
2024/01/21 12:53:51;;;;;;;46.50;20.63;;;;;;;;;;5035955;28;20029;-71
2024/01/21 12:56:18;;;;;;;40.90;18.23;;;;;;;;;;5019095;28;20673;-74
2024/01/21 12:58:44;;;;;;;65.63;19.43;;;;;;;;;;5017005;28;20053;-76
2024/01/21 13:01:11;;;;;;;40.33;18.20;;;;;;;;;;5033932;28;20036;-73
2024/01/21 13:03:37;;;;;;;47.03;18.83;;;;;;;;;;5018288;28;20033;-75
2024/01/21 13:06:06;;;;;;;71.17;23.53;;;;;;;;;;5035008;28;20029;-76
2024/01/21 13:08:37;;;;;;;44.53;19.03;;;;;;;;;;5035885;28;20539;-75
2024/01/21 13:11:03;;;;;;;37.33;17.23;;;;;;;;;;5035062;28;20465;-75
2024/01/21 13:13:30;;;;;;;44.07;17.23;;;;;;;;;;5033591;28;20032;-75
2024/01/21 13:15:56;;;;;;;42.33;17.00;;;;;;;;;;5035592;28;20028;-76
2024/01/21 13:18:22;;;;;;;33.10;17.93;;;;;;;;;;5034469;28;20125;-75
2024/01/21 13:20:49;;;;;;;37.07;16.90;;;;;;;;;;5035351;28;20093;-74
2024/01/21 13:23:16;;;;;;;46.07;16.77;;;;;;;;;;5034317;28;20032;-76
2024/01/21 13:25:43;;;;;;;48.93;17.60;;;;;;;;;;5035289;28;20469;-74
2024/01/21 13:31:05;;;;;;;56.17;18.23;;;;;;;;;;5028334;28;20033;-74
2024/01/21 13:33:38;;;;;;;43.33;16.70;;;;;;;;;;5037046;28;20029;-76
2024/01/21 13:36:04;;;;;;;42.63;19.63;;;;;;;;;;5036188;28;20028;-76
2024/01/21 13:38:34;;;;;;;50.20;16.77;;;;;;;;;;5037123;28;20083;-74
2024/01/21 13:41:03;;;;;;;44.37;17.10;;;;;;;;;;5038503;28;20190;-74
2024/01/21 13:43:30;;;;;;;47.27;17.80;;;;;;;;;;5036911;28;20032;-73
2024/01/21 13:45:58;;;;;;;54.67;17.40;;;;;;;;;;5038506;28;20049;-75
2024/01/21 13:48:25;;;;;;;42.93;17.57;;;;;;;;;;5038204;28;20025;-74
2024/01/21 13:50:52;;;;;;;40.83;16.43;;;;;;;;;;5039378;28;20115;-74
2024/01/21 13:53:18;;;;;;;53.97;17.63;;;;;;;;;;5037335;28;20040;-76
2024/01/21 13:55:45;;;;;;;40.20;15.80;;;;;;;;;;5038101;28;20025;-73
2024/01/21 13:58:12;;;;;;;44.03;16.70;;;;;;;;;;5037217;28;20042;-76
2024/01/21 14:00:38;;;;;;;43.90;18.50;;;;;;;;;;5036847;28;20167;-74
2024/01/21 14:03:04;;;;;;;54.20;19.13;;;;;;;;;;5039159;28;20151;-75
2024/01/21 14:05:30;;;;;;;58.73;22.07;;;;;;;;;;5035956;28;20093;-73
2024/01/21 14:07:56;;;;;;;55.27;20.37;;;;;;;;;;5035145;28;20053;-75
2024/01/21 14:10:22;;;;;;;49.37;22.07;;;;;;;;;;5036931;28;20079;-75
2024/01/21 14:12:48;;;;;;;44.07;21.27;;;;;;;;;;5038404;28;20095;-75
2024/01/21 14:15:15;;;;;;;59.13;21.97;;;;;;;;;;5039326;28;20028;-73
2024/01/21 14:17:41;;;;;;;54.87;23.07;;;;;;;;;;5038028;28;20025;-74